sensor_id;sensor_type;location;lat;lon;timestamp;P1;durP1;ratioP1;P2;durP2;ratioP2
18376;SDS011;9315;52.624;13.544;2022-11-13T00:01:14;38.43;;;20.83;;
18376;SDS011;9315;52.624;13.544;2022-11-13T00:03:50;35.53;;;19.67;;
18376;SDS011;9315;52.624;13.544;2022-11-13T00:06:17;41.67;;;20.50;;
18376;SDS011;9315;52.624;13.544;2022-11-13T00:08:45;30.20;;;17.77;;
18376;SDS011;9315;52.624;13.544;2022-11-13T00:11:16;38.57;;;20.17;;
18376;SDS011;9315;52.624;13.544;2022-11-13T00:13:45;23.53;;;15.17;;
18376;SDS011;9315;52.624;13.544;2022-11-13T00:16:15;27.80;;;16.37;;
18376;SDS011;9315;52.624;13.544;2022-11-13T00:18:46;33.17;;;18.60;;
18376;SDS011;9315;52.624;13.544;2022-11-13T00:21:18;34.90;;;20.23;;
18376;SDS011;9315;52.624;13.544;2022-11-13T00:23:50;36.33;;;19.60;;
18376;SDS011;9315;52.624;13.544;2022-11-13T00:26:19;29.30;;;18.20;;
18376;SDS011;9315;52.624;13.544;2022-11-13T00:28:57;30.50;;;15.73;;
18376;SDS011;9315;52.624;13.544;2022-11-13T00:31:27;39.83;;;20.33;;
18376;SDS011;9315;52.624;13.544;2022-11-13T00:33:56;34.90;;;20.67;;
18376;SDS011;9315;52.624;13.544;2022-11-13T00:36:44;34.53;;;19.40;;
18376;SDS011;9315;52.624;13.544;2022-11-13T00:39:11;21.93;;;13.33;;
18376;SDS011;9315;52.624;13.544;2022-11-13T00:41:39;32.47;;;18.67;;
18376;SDS011;9315;52.624;13.544;2022-11-13T00:44:06;33.10;;;18.53;;
18376;SDS011;9315;52.624;13.544;2022-11-13T00:46:33;26.03;;;15.97;;
18376;SDS011;9315;52.624;13.544;2022-11-13T00:49:03;24.67;;;14.83;;
18376;SDS011;9315;52.624;13.544;2022-11-13T00:51:30;35.40;;;19.00;;
18376;SDS011;9315;52.624;13.544;2022-11-13T00:53:57;31.07;;;18.30;;
18376;SDS011;9315;52.624;13.544;2022-11-13T00:56:24;18.80;;;12.10;;
18376;SDS011;9315;52.624;13.544;2022-11-13T00:58:52;23.67;;;14.83;;
18376;SDS011;9315;52.624;13.544;2022-11-13T01:01:19;28.87;;;16.33;;
18376;SDS011;9315;52.624;13.544;2022-11-13T01:03:47;26.80;;;15.67;;
18376;SDS011;9315;52.624;13.544;2022-11-13T01:06:22;23.43;;;13.97;;
18376;SDS011;9315;52.624;13.544;2022-11-13T01:08:56;35.67;;;17.60;;
18376;SDS011;9315;52.624;13.544;2022-11-13T01:11:25;42.47;;;20.23;;
18376;SDS011;9315;52.624;13.544;2022-11-13T01:13:55;29.07;;;15.57;;
18376;SDS011;9315;52.624;13.544;2022-11-13T01:16:24;31.77;;;17.60;;
18376;SDS011;9315;52.624;13.544;2022-11-13T01:18:53;19.43;;;12.87;;
18376;SDS011;9315;52.624;13.544;2022-11-13T01:21:22;23.50;;;12.97;;
18376;SDS011;9315;52.624;13.544;2022-11-13T01:23:52;25.17;;;15.13;;
18376;SDS011;9315;52.624;13.544;2022-11-13T01:26:25;37.40;;;19.00;;
18376;SDS011;9315;52.624;13.544;2022-11-13T01:28:56;34.50;;;18.37;;
18376;SDS011;9315;52.624;13.544;2022-11-13T01:31:25;35.17;;;19.20;;
18376;SDS011;9315;52.624;13.544;2022-11-13T01:33:56;34.77;;;17.80;;
18376;SDS011;9315;52.624;13.544;2022-11-13T01:36:25;33.07;;;18.27;;
18376;SDS011;9315;52.624;13.544;2022-11-13T01:38:53;26.20;;;15.77;;
18376;SDS011;9315;52.624;13.544;2022-11-13T01:41:28;24.67;;;15.40;;
18376;SDS011;9315;52.624;13.544;2022-11-13T01:43:58;32.33;;;17.73;;
18376;SDS011;9315;52.624;13.544;2022-11-13T01:46:27;25.40;;;15.70;;
18376;SDS011;9315;52.624;13.544;2022-11-13T01:52:42;27.63;;;16.10;;
18376;SDS011;9315;52.624;13.544;2022-11-13T01:55:10;28.33;;;16.00;;
18376;SDS011;9315;52.624;13.544;2022-11-13T01:57:41;26.70;;;16.57;;
18376;SDS011;9315;52.624;13.544;2022-11-13T02:00:09;27.37;;;17.13;;
18376;SDS011;9315;52.624;13.544;2022-11-13T02:02:37;30.17;;;17.37;;
18376;SDS011;9315;52.624;13.544;2022-11-13T02:05:04;25.77;;;15.97;;
18376;SDS011;9315;52.624;13.544;2022-11-13T02:07:34;30.30;;;16.73;;
18376;SDS011;9315;52.624;13.544;2022-11-13T02:10:01;27.37;;;15.00;;
18376;SDS011;9315;52.624;13.544;2022-11-13T02:12:35;27.93;;;16.37;;
18376;SDS011;9315;52.624;13.544;2022-11-13T02:15:07;26.27;;;14.63;;
18376;SDS011;9315;52.624;13.544;2022-11-13T02:20:16;24.60;;;15.47;;
18376;SDS011;9315;52.624;13.544;2022-11-13T02:25:55;25.00;;;15.20;;
18376;SDS011;9315;52.624;13.544;2022-11-13T02:28:22;21.03;;;13.93;;
18376;SDS011;9315;52.624;13.544;2022-11-13T02:30:49;24.37;;;14.23;;
18376;SDS011;9315;52.624;13.544;2022-11-13T02:33:27;25.67;;;13.80;;
18376;SDS011;9315;52.624;13.544;2022-11-13T02:35:58;25.90;;;13.97;;
18376;SDS011;9315;52.624;13.544;2022-11-13T02:38:25;20.13;;;13.20;;
18376;SDS011;9315;52.624;13.544;2022-11-13T02:40:53;22.57;;;13.60;;
18376;SDS011;9315;52.624;13.544;2022-11-13T02:43:20;21.07;;;13.53;;
18376;SDS011;9315;52.624;13.544;2022-11-13T02:45:47;16.00;;;11.63;;
18376;SDS011;9315;52.624;13.544;2022-11-13T02:48:14;18.77;;;11.80;;
18376;SDS011;9315;52.624;13.544;2022-11-13T02:50:41;21.17;;;12.83;;
18376;SDS011;9315;52.624;13.544;2022-11-13T02:53:08;15.30;;;9.77;;
18376;SDS011;9315;52.624;13.544;2022-11-13T02:55:36;18.23;;;11.83;;
18376;SDS011;9315;52.624;13.544;2022-11-13T02:58:03;16.43;;;10.33;;
18376;SDS011;9315;52.624;13.544;2022-11-13T03:00:30;18.00;;;11.63;;
18376;SDS011;9315;52.624;13.544;2022-11-13T03:02:57;23.07;;;11.93;;
18376;SDS011;9315;52.624;13.544;2022-11-13T03:05:24;19.13;;;11.33;;
18376;SDS011;9315;52.624;13.544;2022-11-13T03:07:51;17.33;;;11.43;;
18376;SDS011;9315;52.624;13.544;2022-11-13T03:10:18;19.33;;;11.67;;
18376;SDS011;9315;52.624;13.544;2022-11-13T03:12:45;16.87;;;11.60;;
18376;SDS011;9315;52.624;13.544;2022-11-13T03:15:13;18.43;;;10.33;;
18376;SDS011;9315;52.624;13.544;2022-11-13T03:17:40;17.53;;;12.60;;
18376;SDS011;9315;52.624;13.544;2022-11-13T03:20:07;20.27;;;12.50;;
18376;SDS011;9315;52.624;13.544;2022-11-13T03:22:34;19.37;;;12.00;;
18376;SDS011;9315;52.624;13.544;2022-11-13T03:25:01;17.23;;;11.47;;
18376;SDS011;9315;52.624;13.544;2022-11-13T03:27:35;17.37;;;11.93;;
18376;SDS011;9315;52.624;13.544;2022-11-13T03:30:03;23.63;;;12.53;;
18376;SDS011;9315;52.624;13.544;2022-11-13T03:32:31;15.90;;;11.90;;
18376;SDS011;9315;52.624;13.544;2022-11-13T03:34:58;17.87;;;10.90;;
18376;SDS011;9315;52.624;13.544;2022-11-13T03:37:25;16.10;;;10.97;;
18376;SDS011;9315;52.624;13.544;2022-11-13T03:39:52;14.00;;;9.80;;
18376;SDS011;9315;52.624;13.544;2022-11-13T03:42:19;17.00;;;10.47;;
18376;SDS011;9315;52.624;13.544;2022-11-13T03:44:46;14.60;;;9.53;;
18376;SDS011;9315;52.624;13.544;2022-11-13T03:47:13;13.90;;;9.67;;
18376;SDS011;9315;52.624;13.544;2022-11-13T03:49:40;14.47;;;9.97;;
18376;SDS011;9315;52.624;13.544;2022-11-13T03:52:07;16.97;;;11.00;;
18376;SDS011;9315;52.624;13.544;2022-11-13T03:54:34;14.53;;;10.27;;
18376;SDS011;9315;52.624;13.544;2022-11-13T03:57:01;14.63;;;9.97;;
18376;SDS011;9315;52.624;13.544;2022-11-13T03:59:29;18.30;;;11.17;;
18376;SDS011;9315;52.624;13.544;2022-11-13T04:01:56;20.70;;;11.67;;
18376;SDS011;9315;52.624;13.544;2022-11-13T04:04:23;15.87;;;11.10;;
18376;SDS011;9315;52.624;13.544;2022-11-13T04:06:50;18.13;;;12.00;;
18376;SDS011;9315;52.624;13.544;2022-11-13T04:09:17;18.23;;;11.90;;
18376;SDS011;9315;52.624;13.544;2022-11-13T04:11:44;15.13;;;10.40;;
18376;SDS011;9315;52.624;13.544;2022-11-13T04:14:11;16.00;;;9.70;;
18376;SDS011;9315;52.624;13.544;2022-11-13T04:16:38;17.13;;;10.13;;
18376;SDS011;9315;52.624;13.544;2022-11-13T04:19:05;12.83;;;8.57;;
18376;SDS011;9315;52.624;13.544;2022-11-13T04:21:32;11.53;;;9.13;;
18376;SDS011;9315;52.624;13.544;2022-11-13T04:23:59;15.47;;;9.93;;
18376;SDS011;9315;52.624;13.544;2022-11-13T04:26:26;15.17;;;9.20;;
18376;SDS011;9315;52.624;13.544;2022-11-13T04:28:53;12.87;;;9.13;;
18376;SDS011;9315;52.624;13.544;2022-11-13T04:31:20;15.03;;;9.67;;
18376;SDS011;9315;52.624;13.544;2022-11-13T04:33:48;16.50;;;9.63;;
18376;SDS011;9315;52.624;13.544;2022-11-13T04:36:15;15.07;;;8.33;;
18376;SDS011;9315;52.624;13.544;2022-11-13T04:38:42;15.50;;;8.97;;
18376;SDS011;9315;52.624;13.544;2022-11-13T04:41:10;12.13;;;9.50;;
18376;SDS011;9315;52.624;13.544;2022-11-13T04:43:57;15.00;;;8.70;;
18376;SDS011;9315;52.624;13.544;2022-11-13T04:46:24;17.13;;;10.07;;
18376;SDS011;9315;52.624;13.544;2022-11-13T04:48:51;14.47;;;8.70;;
18376;SDS011;9315;52.624;13.544;2022-11-13T04:51:18;13.77;;;7.90;;
18376;SDS011;9315;52.624;13.544;2022-11-13T04:53:45;11.53;;;8.47;;
18376;SDS011;9315;52.624;13.544;2022-11-13T04:56:12;12.73;;;7.57;;
18376;SDS011;9315;52.624;13.544;2022-11-13T04:58:39;15.43;;;9.77;;
18376;SDS011;9315;52.624;13.544;2022-11-13T05:01:06;17.03;;;10.67;;
18376;SDS011;9315;52.624;13.544;2022-11-13T05:03:33;12.33;;;8.50;;
18376;SDS011;9315;52.624;13.544;2022-11-13T05:06:01;13.40;;;9.47;;
18376;SDS011;9315;52.624;13.544;2022-11-13T05:08:33;16.17;;;9.83;;
18376;SDS011;9315;52.624;13.544;2022-11-13T05:11:01;19.33;;;11.27;;
18376;SDS011;9315;52.624;13.544;2022-11-13T05:13:30;17.57;;;9.63;;
18376;SDS011;9315;52.624;13.544;2022-11-13T05:16:02;13.87;;;9.47;;
18376;SDS011;9315;52.624;13.544;2022-11-13T05:18:33;12.60;;;9.07;;
18376;SDS011;9315;52.624;13.544;2022-11-13T05:21:03;11.03;;;9.00;;
18376;SDS011;9315;52.624;13.544;2022-11-13T05:23:32;16.00;;;10.20;;
18376;SDS011;9315;52.624;13.544;2022-11-13T05:26:07;18.47;;;10.43;;
18376;SDS011;9315;52.624;13.544;2022-11-13T05:28:38;17.00;;;10.63;;
18376;SDS011;9315;52.624;13.544;2022-11-13T05:31:06;17.40;;;9.90;;
18376;SDS011;9315;52.624;13.544;2022-11-13T05:33:43;15.67;;;11.20;;
18376;SDS011;9315;52.624;13.544;2022-11-13T05:36:15;18.00;;;11.33;;
18376;SDS011;9315;52.624;13.544;2022-11-13T05:38:44;13.30;;;9.60;;
18376;SDS011;9315;52.624;13.544;2022-11-13T05:41:15;14.13;;;10.17;;
18376;SDS011;9315;52.624;13.544;2022-11-13T05:43:47;17.90;;;10.47;;
18376;SDS011;9315;52.624;13.544;2022-11-13T05:46:22;19.60;;;11.23;;
18376;SDS011;9315;52.624;13.544;2022-11-13T05:48:54;17.50;;;11.07;;
18376;SDS011;9315;52.624;13.544;2022-11-13T05:51:25;19.70;;;11.90;;
18376;SDS011;9315;52.624;13.544;2022-11-13T05:53:56;14.40;;;10.33;;
18376;SDS011;9315;52.624;13.544;2022-11-13T05:56:25;18.30;;;12.70;;
18376;SDS011;9315;52.624;13.544;2022-11-13T05:59:00;16.87;;;11.13;;
18376;SDS011;9315;52.624;13.544;2022-11-13T06:01:29;14.57;;;10.40;;
18376;SDS011;9315;52.624;13.544;2022-11-13T06:04:04;13.73;;;9.47;;
18376;SDS011;9315;52.624;13.544;2022-11-13T06:06:33;14.17;;;10.53;;
18376;SDS011;9315;52.624;13.544;2022-11-13T06:09:01;18.73;;;12.57;;
18376;SDS011;9315;52.624;13.544;2022-11-13T06:11:31;19.10;;;12.27;;
18376;SDS011;9315;52.624;13.544;2022-11-13T06:13:58;16.00;;;11.43;;
18376;SDS011;9315;52.624;13.544;2022-11-13T06:16:27;16.70;;;11.77;;
18376;SDS011;9315;52.624;13.544;2022-11-13T06:19:00;15.80;;;10.50;;
18376;SDS011;9315;52.624;13.544;2022-11-13T06:21:31;14.53;;;11.30;;
18376;SDS011;9315;52.624;13.544;2022-11-13T06:24:01;17.57;;;10.00;;
18376;SDS011;9315;52.624;13.544;2022-11-13T06:26:30;15.27;;;10.83;;
18376;SDS011;9315;52.624;13.544;2022-11-13T06:29:01;13.33;;;9.57;;
18376;SDS011;9315;52.624;13.544;2022-11-13T06:31:33;18.17;;;13.13;;
18376;SDS011;9315;52.624;13.544;2022-11-13T06:34:02;19.93;;;13.37;;
18376;SDS011;9315;52.624;13.544;2022-11-13T06:36:31;17.60;;;12.20;;
18376;SDS011;9315;52.624;13.544;2022-11-13T06:39:05;16.90;;;12.03;;
18376;SDS011;9315;52.624;13.544;2022-11-13T06:41:36;22.97;;;13.27;;
18376;SDS011;9315;52.624;13.544;2022-11-13T06:44:04;20.07;;;13.13;;
18376;SDS011;9315;52.624;13.544;2022-11-13T06:46:31;19.17;;;11.03;;
18376;SDS011;9315;52.624;13.544;2022-11-13T06:48:58;19.80;;;11.20;;
18376;SDS011;9315;52.624;13.544;2022-11-13T06:51:29;18.10;;;11.93;;
18376;SDS011;9315;52.624;13.544;2022-11-13T06:53:56;23.10;;;12.80;;
18376;SDS011;9315;52.624;13.544;2022-11-13T06:56:24;24.53;;;13.50;;
18376;SDS011;9315;52.624;13.544;2022-11-13T06:58:52;23.13;;;12.37;;
18376;SDS011;9315;52.624;13.544;2022-11-13T07:01:22;21.80;;;13.10;;
18376;SDS011;9315;52.624;13.544;2022-11-13T07:03:51;21.07;;;12.37;;
18376;SDS011;9315;52.624;13.544;2022-11-13T07:06:20;18.63;;;11.87;;
18376;SDS011;9315;52.624;13.544;2022-11-13T07:08:49;19.93;;;11.57;;
18376;SDS011;9315;52.624;13.544;2022-11-13T07:11:18;17.07;;;11.13;;
18376;SDS011;9315;52.624;13.544;2022-11-13T07:13:47;16.83;;;11.37;;
18376;SDS011;9315;52.624;13.544;2022-11-13T07:16:15;20.37;;;11.87;;
18376;SDS011;9315;52.624;13.544;2022-11-13T07:18:50;17.23;;;10.70;;
18376;SDS011;9315;52.624;13.544;2022-11-13T07:21:18;20.53;;;12.60;;
18376;SDS011;9315;52.624;13.544;2022-11-13T07:23:47;20.33;;;11.97;;
18376;SDS011;9315;52.624;13.544;2022-11-13T07:26:16;20.93;;;12.83;;
18376;SDS011;9315;52.624;13.544;2022-11-13T07:28:44;19.40;;;12.43;;
18376;SDS011;9315;52.624;13.544;2022-11-13T07:31:13;17.50;;;12.30;;
18376;SDS011;9315;52.624;13.544;2022-11-13T07:33:42;20.07;;;13.10;;
18376;SDS011;9315;52.624;13.544;2022-11-13T07:36:09;21.53;;;12.97;;
18376;SDS011;9315;52.624;13.544;2022-11-13T07:38:37;19.33;;;13.23;;
18376;SDS011;9315;52.624;13.544;2022-11-13T07:41:04;21.10;;;13.93;;
18376;SDS011;9315;52.624;13.544;2022-11-13T07:43:31;21.00;;;13.23;;
18376;SDS011;9315;52.624;13.544;2022-11-13T07:46:00;23.03;;;12.40;;
18376;SDS011;9315;52.624;13.544;2022-11-13T07:48:27;20.00;;;11.80;;
18376;SDS011;9315;52.624;13.544;2022-11-13T07:50:58;23.50;;;13.33;;
18376;SDS011;9315;52.624;13.544;2022-11-13T07:53:27;24.33;;;12.87;;
18376;SDS011;9315;52.624;13.544;2022-11-13T07:55:58;17.87;;;11.27;;
18376;SDS011;9315;52.624;13.544;2022-11-13T07:58:27;19.83;;;11.60;;
18376;SDS011;9315;52.624;13.544;2022-11-13T08:01:00;19.10;;;11.57;;
18376;SDS011;9315;52.624;13.544;2022-11-13T08:03:30;16.23;;;10.10;;
18376;SDS011;9315;52.624;13.544;2022-11-13T08:06:01;18.37;;;10.37;;
18376;SDS011;9315;52.624;13.544;2022-11-13T08:08:32;14.03;;;8.70;;
18376;SDS011;9315;52.624;13.544;2022-11-13T08:11:04;16.77;;;10.00;;
18376;SDS011;9315;52.624;13.544;2022-11-13T08:13:34;17.77;;;9.70;;
18376;SDS011;9315;52.624;13.544;2022-11-13T08:16:02;17.57;;;9.10;;
18376;SDS011;9315;52.624;13.544;2022-11-13T08:18:30;15.33;;;8.93;;
18376;SDS011;9315;52.624;13.544;2022-11-13T08:21:00;12.30;;;8.43;;
18376;SDS011;9315;52.624;13.544;2022-11-13T08:23:31;11.77;;;7.90;;
18376;SDS011;9315;52.624;13.544;2022-11-13T08:26:02;13.63;;;7.90;;
18376;SDS011;9315;52.624;13.544;2022-11-13T08:28:33;15.17;;;8.07;;
18376;SDS011;9315;52.624;13.544;2022-11-13T08:31:00;14.20;;;8.47;;
18376;SDS011;9315;52.624;13.544;2022-11-13T08:33:28;12.60;;;8.07;;
18376;SDS011;9315;52.624;13.544;2022-11-13T08:35:58;15.93;;;8.10;;
18376;SDS011;9315;52.624;13.544;2022-11-13T08:38:25;13.73;;;8.27;;
18376;SDS011;9315;52.624;13.544;2022-11-13T08:40:57;15.13;;;7.57;;
18376;SDS011;9315;52.624;13.544;2022-11-13T08:43:32;11.63;;;7.27;;
18376;SDS011;9315;52.624;13.544;2022-11-13T08:45:59;13.73;;;7.77;;
18376;SDS011;9315;52.624;13.544;2022-11-13T08:48:27;12.80;;;7.50;;
18376;SDS011;9315;52.624;13.544;2022-11-13T08:50:55;15.53;;;8.60;;
18376;SDS011;9315;52.624;13.544;2022-11-13T08:53:23;12.43;;;8.00;;
18376;SDS011;9315;52.624;13.544;2022-11-13T08:55:51;15.70;;;9.40;;
18376;SDS011;9315;52.624;13.544;2022-11-13T08:58:18;15.40;;;8.70;;
18376;SDS011;9315;52.624;13.544;2022-11-13T09:00:45;19.50;;;11.33;;
18376;SDS011;9315;52.624;13.544;2022-11-13T09:03:12;20.30;;;11.47;;
18376;SDS011;9315;52.624;13.544;2022-11-13T09:05:39;22.47;;;12.07;;
18376;SDS011;9315;52.624;13.544;2022-11-13T09:08:06;22.80;;;11.37;;
18376;SDS011;9315;52.624;13.544;2022-11-13T09:10:41;19.13;;;11.50;;
18376;SDS011;9315;52.624;13.544;2022-11-13T09:13:08;24.23;;;13.77;;
18376;SDS011;9315;52.624;13.544;2022-11-13T09:15:37;26.77;;;14.40;;
18376;SDS011;9315;52.624;13.544;2022-11-13T09:18:05;24.60;;;13.30;;
18376;SDS011;9315;52.624;13.544;2022-11-13T09:20:32;26.67;;;13.37;;
18376;SDS011;9315;52.624;13.544;2022-11-13T09:23:01;26.13;;;14.57;;
18376;SDS011;9315;52.624;13.544;2022-11-13T09:25:33;23.80;;;13.60;;
18376;SDS011;9315;52.624;13.544;2022-11-13T09:28:03;25.87;;;13.93;;
18376;SDS011;9315;52.624;13.544;2022-11-13T09:30:32;25.33;;;14.83;;
18376;SDS011;9315;52.624;13.544;2022-11-13T09:32:59;21.67;;;13.73;;
18376;SDS011;9315;52.624;13.544;2022-11-13T09:35:27;27.27;;;15.57;;
18376;SDS011;9315;52.624;13.544;2022-11-13T09:38:03;27.67;;;15.37;;
18376;SDS011;9315;52.624;13.544;2022-11-13T09:40:40;23.27;;;13.90;;
18376;SDS011;9315;52.624;13.544;2022-11-13T09:43:53;27.40;;;14.97;;
18376;SDS011;9315;52.624;13.544;2022-11-13T09:49:30;26.10;;;15.53;;
18376;SDS011;9315;52.624;13.544;2022-11-13T09:52:04;26.97;;;16.80;;
18376;SDS011;9315;52.624;13.544;2022-11-13T09:54:49;22.43;;;13.83;;
18376;SDS011;9315;52.624;13.544;2022-11-13T09:57:20;25.60;;;14.80;;
18376;SDS011;9315;52.624;13.544;2022-11-13T10:00:02;24.47;;;13.90;;
18376;SDS011;9315;52.624;13.544;2022-11-13T10:09:26;24.07;;;15.00;;
18376;SDS011;9315;52.624;13.544;2022-11-13T10:12:55;22.50;;;14.13;;
18376;SDS011;9315;52.624;13.544;2022-11-13T10:15:25;22.70;;;14.03;;
18376;SDS011;9315;52.624;13.544;2022-11-13T10:18:28;43.63;;;27.00;;
18376;SDS011;9315;52.624;13.544;2022-11-13T10:20:56;21.57;;;14.60;;
18376;SDS011;9315;52.624;13.544;2022-11-13T10:23:43;32.87;;;17.33;;
18376;SDS011;9315;52.624;13.544;2022-11-13T10:26:21;28.13;;;15.87;;
18376;SDS011;9315;52.624;13.544;2022-11-13T10:29:10;26.03;;;17.00;;
18376;SDS011;9315;52.624;13.544;2022-11-13T10:31:45;32.20;;;21.43;;
18376;SDS011;9315;52.624;13.544;2022-11-13T10:34:16;23.53;;;16.60;;
18376;SDS011;9315;52.624;13.544;2022-11-13T10:40:04;19.97;;;15.47;;
18376;SDS011;9315;52.624;13.544;2022-11-13T10:42:36;19.90;;;13.60;;
18376;SDS011;9315;52.624;13.544;2022-11-13T10:45:16;21.97;;;14.10;;
18376;SDS011;9315;52.624;13.544;2022-11-13T10:47:48;20.60;;;15.37;;
18376;SDS011;9315;52.624;13.544;2022-11-13T10:50:30;22.87;;;14.53;;
18376;SDS011;9315;52.624;13.544;2022-11-13T10:52:58;18.70;;;13.97;;
18376;SDS011;9315;52.624;13.544;2022-11-13T10:55:38;21.33;;;14.80;;
18376;SDS011;9315;52.624;13.544;2022-11-13T10:58:13;35.17;;;25.80;;
18376;SDS011;9315;52.624;13.544;2022-11-13T11:00:44;22.13;;;15.13;;
18376;SDS011;9315;52.624;13.544;2022-11-13T11:03:16;23.37;;;16.00;;
18376;SDS011;9315;52.624;13.544;2022-11-13T11:05:58;24.43;;;14.70;;
18376;SDS011;9315;52.624;13.544;2022-11-13T11:08:33;22.23;;;14.90;;
18376;SDS011;9315;52.624;13.544;2022-11-13T11:14:18;22.13;;;14.63;;
18376;SDS011;9315;52.624;13.544;2022-11-13T11:16:53;21.43;;;13.87;;
18376;SDS011;9315;52.624;13.544;2022-11-13T11:19:23;19.80;;;13.10;;
18376;SDS011;9315;52.624;13.544;2022-11-13T11:22:00;18.20;;;13.27;;
18376;SDS011;9315;52.624;13.544;2022-11-13T11:24:50;23.10;;;14.20;;
18376;SDS011;9315;52.624;13.544;2022-11-13T11:27:51;23.80;;;14.07;;
18376;SDS011;9315;52.624;13.544;2022-11-13T11:30:25;19.47;;;13.40;;
18376;SDS011;9315;52.624;13.544;2022-11-13T11:33:16;19.47;;;12.57;;
18376;SDS011;9315;52.624;13.544;2022-11-13T11:36:14;21.50;;;13.83;;
18376;SDS011;9315;52.624;13.544;2022-11-13T11:42:32;22.13;;;13.63;;
18376;SDS011;9315;52.624;13.544;2022-11-13T11:48:10;19.17;;;11.93;;
18376;SDS011;9315;52.624;13.544;2022-11-13T12:01:04;21.23;;;13.20;;
18376;SDS011;9315;52.624;13.544;2022-11-13T12:04:12;17.47;;;13.27;;
18376;SDS011;9315;52.624;13.544;2022-11-13T12:16:00;15.83;;;11.97;;
18376;SDS011;9315;52.624;13.544;2022-11-13T12:27:42;16.77;;;12.73;;
18376;SDS011;9315;52.624;13.544;2022-11-13T12:31:44;18.47;;;11.87;;
18376;SDS011;9315;52.624;13.544;2022-11-13T12:34:45;16.73;;;12.77;;
18376;SDS011;9315;52.624;13.544;2022-11-13T12:37:27;17.77;;;12.57;;
18376;SDS011;9315;52.624;13.544;2022-11-13T12:41:00;19.23;;;13.47;;
18376;SDS011;9315;52.624;13.544;2022-11-13T12:44:21;16.23;;;11.97;;
18376;SDS011;9315;52.624;13.544;2022-11-13T12:46:52;16.20;;;12.77;;
18376;SDS011;9315;52.624;13.544;2022-11-13T12:49:26;17.00;;;13.93;;
18376;SDS011;9315;52.624;13.544;2022-11-13T12:52:02;17.97;;;12.27;;
18376;SDS011;9315;52.624;13.544;2022-11-13T12:54:45;19.60;;;12.33;;
18376;SDS011;9315;52.624;13.544;2022-11-13T12:59:41;14.00;;;11.07;;
18376;SDS011;9315;52.624;13.544;2022-11-13T13:02:29;15.70;;;10.90;;
18376;SDS011;9315;52.624;13.544;2022-11-13T13:15:53;16.07;;;11.00;;
18376;SDS011;9315;52.624;13.544;2022-11-13T13:18:29;15.20;;;11.10;;
18376;SDS011;9315;52.624;13.544;2022-11-13T13:23:46;15.57;;;11.23;;
18376;SDS011;9315;52.624;13.544;2022-11-13T13:26:27;17.90;;;11.43;;
18376;SDS011;9315;52.624;13.544;2022-11-13T13:29:25;17.50;;;11.30;;
18376;SDS011;9315;52.624;13.544;2022-11-13T13:32:00;18.17;;;12.43;;
18376;SDS011;9315;52.624;13.544;2022-11-13T13:35:10;16.57;;;11.50;;
18376;SDS011;9315;52.624;13.544;2022-11-13T13:37:51;17.10;;;11.00;;
18376;SDS011;9315;52.624;13.544;2022-11-13T13:41:01;16.30;;;11.60;;
18376;SDS011;9315;52.624;13.544;2022-11-13T13:48:01;21.17;;;13.43;;
18376;SDS011;9315;52.624;13.544;2022-11-13T13:50:37;23.23;;;16.07;;
18376;SDS011;9315;52.624;13.544;2022-11-13T13:53:13;21.77;;;13.47;;
18376;SDS011;9315;52.624;13.544;2022-11-13T13:55:53;17.80;;;13.67;;
18376;SDS011;9315;52.624;13.544;2022-11-13T13:58:26;20.83;;;14.27;;
18376;SDS011;9315;52.624;13.544;2022-11-13T14:01:02;20.60;;;13.83;;
18376;SDS011;9315;52.624;13.544;2022-11-13T14:03:44;16.77;;;12.53;;
18376;SDS011;9315;52.624;13.544;2022-11-13T14:06:19;20.90;;;15.17;;
18376;SDS011;9315;52.624;13.544;2022-11-13T14:08:48;27.90;;;20.53;;
18376;SDS011;9315;52.624;13.544;2022-11-13T14:11:23;31.97;;;23.07;;
18376;SDS011;9315;52.624;13.544;2022-11-13T14:14:14;31.77;;;21.37;;
18376;SDS011;9315;52.624;13.544;2022-11-13T14:16:55;44.70;;;31.07;;
18376;SDS011;9315;52.624;13.544;2022-11-13T14:19:25;39.73;;;27.70;;
18376;SDS011;9315;52.624;13.544;2022-11-13T14:21:56;23.83;;;16.93;;
18376;SDS011;9315;52.624;13.544;2022-11-13T14:24:30;25.77;;;16.33;;
18376;SDS011;9315;52.624;13.544;2022-11-13T14:27:11;23.50;;;16.73;;
18376;SDS011;9315;52.624;13.544;2022-11-13T14:29:50;29.93;;;19.73;;
18376;SDS011;9315;52.624;13.544;2022-11-13T14:35:18;21.43;;;13.83;;
18376;SDS011;9315;52.624;13.544;2022-11-13T14:37:49;27.30;;;18.37;;
18376;SDS011;9315;52.624;13.544;2022-11-13T14:40:21;23.10;;;14.43;;
18376;SDS011;9315;52.624;13.544;2022-11-13T14:42:58;21.43;;;15.53;;
18376;SDS011;9315;52.624;13.544;2022-11-13T14:45:32;22.37;;;15.37;;
18376;SDS011;9315;52.624;13.544;2022-11-13T14:48:00;23.17;;;14.27;;
18376;SDS011;9315;52.624;13.544;2022-11-13T14:53:38;24.53;;;14.57;;
18376;SDS011;9315;52.624;13.544;2022-11-13T14:56:08;21.13;;;14.80;;
18376;SDS011;9315;52.624;13.544;2022-11-13T14:58:38;24.23;;;15.87;;
18376;SDS011;9315;52.624;13.544;2022-11-13T15:01:16;22.87;;;14.80;;
18376;SDS011;9315;52.624;13.544;2022-11-13T15:03:48;23.07;;;15.77;;
18376;SDS011;9315;52.624;13.544;2022-11-13T15:06:21;24.00;;;16.50;;
18376;SDS011;9315;52.624;13.544;2022-11-13T15:09:02;30.13;;;19.57;;
18376;SDS011;9315;52.624;13.544;2022-11-13T15:11:38;24.90;;;16.00;;
18376;SDS011;9315;52.624;13.544;2022-11-13T15:14:12;25.00;;;15.53;;
18376;SDS011;9315;52.624;13.544;2022-11-13T15:16:44;23.50;;;15.53;;
18376;SDS011;9315;52.624;13.544;2022-11-13T15:22:03;24.43;;;16.77;;
18376;SDS011;9315;52.624;13.544;2022-11-13T15:24:52;28.83;;;17.63;;
18376;SDS011;9315;52.624;13.544;2022-11-13T15:27:19;28.97;;;16.77;;
18376;SDS011;9315;52.624;13.544;2022-11-13T15:29:46;31.33;;;19.40;;
18376;SDS011;9315;52.624;13.544;2022-11-13T15:32:13;25.53;;;15.90;;
18376;SDS011;9315;52.624;13.544;2022-11-13T15:34:41;25.30;;;16.20;;
18376;SDS011;9315;52.624;13.544;2022-11-13T15:37:09;31.67;;;19.20;;
18376;SDS011;9315;52.624;13.544;2022-11-13T15:39:41;32.50;;;17.07;;
18376;SDS011;9315;52.624;13.544;2022-11-13T15:42:12;27.67;;;17.60;;
18376;SDS011;9315;52.624;13.544;2022-11-13T15:44:52;36.53;;;21.13;;
18376;SDS011;9315;52.624;13.544;2022-11-13T15:49:55;34.80;;;19.30;;
18376;SDS011;9315;52.624;13.544;2022-11-13T15:52:41;34.37;;;20.60;;
18376;SDS011;9315;52.624;13.544;2022-11-13T15:57:56;33.27;;;20.10;;
18376;SDS011;9315;52.624;13.544;2022-11-13T16:00:25;38.63;;;20.87;;
18376;SDS011;9315;52.624;13.544;2022-11-13T16:02:55;41.73;;;22.97;;
18376;SDS011;9315;52.624;13.544;2022-11-13T16:05:23;41.50;;;22.63;;
18376;SDS011;9315;52.624;13.544;2022-11-13T16:07:54;45.03;;;24.87;;
18376;SDS011;9315;52.624;13.544;2022-11-13T16:10:23;43.17;;;24.13;;
18376;SDS011;9315;52.624;13.544;2022-11-13T16:12:51;35.90;;;21.03;;
18376;SDS011;9315;52.624;13.544;2022-11-13T16:15:21;42.77;;;21.60;;
18376;SDS011;9315;52.624;13.544;2022-11-13T16:17:49;43.67;;;23.77;;
18376;SDS011;9315;52.624;13.544;2022-11-13T16:20:20;41.43;;;23.37;;
18376;SDS011;9315;52.624;13.544;2022-11-13T16:22:47;43.73;;;23.70;;
18376;SDS011;9315;52.624;13.544;2022-11-13T16:25:17;38.50;;;22.37;;
18376;SDS011;9315;52.624;13.544;2022-11-13T16:27:46;43.77;;;23.00;;
18376;SDS011;9315;52.624;13.544;2022-11-13T16:30:14;47.77;;;26.50;;